Acharn, United Kingdom
Current Conditions -  °F | °C
As of 9:20 AM on Thursday 23 Oct 2014 (Local Time) from EGPF Reporting Station
Light Rain Light Rain  
Wind Chill: 54°   Ceiling: 1700
Heat Index: 54°   Visibility: 2.6mi
Dew Point: 52°   Wind: 17mph
Humidity: 94%   Direction: 210°SSW
Pressure: 29.8"   Gusts: NA
Location:  56.47°N, 5.02°W
Report Text: EGPF 230820Z AUTO 21015KT 4200 -RA FEW010 BKN017 OVC048 12/11 Q1009 RERA
Loading
Personal Weather Stations






























Interactive Weather Map
Tropical Storm Tracking
New forecast layout! Learn more

10-Day Weather Forecast

Advertisements
Track Severe Weather on mobile